sensor_id;sensor_type;location;lat;lon;timestamp;P1;durP1;ratioP1;P2;durP2;ratioP2
30249;SDS011;17064;47.974;13.826;2023-04-03T03:02:49;4.30;;;3.78;;
30249;SDS011;17064;47.974;13.826;2023-04-03T03:07:49;6.97;;;3.95;;
30249;SDS011;17064;47.974;13.826;2023-04-03T03:12:50;7.28;;;4.35;;
30249;SDS011;17064;47.974;13.826;2023-04-03T03:17:51;7.28;;;4.82;;
30249;SDS011;17064;47.974;13.826;2023-04-03T03:22:52;7.07;;;4.60;;
30249;SDS011;17064;47.974;13.826;2023-04-03T03:27:52;6.28;;;4.57;;
30249;SDS011;17064;47.974;13.826;2023-04-03T03:32:53;6.68;;;4.60;;
30249;SDS011;17064;47.974;13.826;2023-04-03T03:37:54;5.45;;;3.90;;
30249;SDS011;17064;47.974;13.826;2023-04-03T03:42:55;4.65;;;3.55;;
30249;SDS011;17064;47.974;13.826;2023-04-03T03:47:55;5.68;;;4.22;;
30249;SDS011;17064;47.974;13.826;2023-04-03T03:52:56;5.47;;;4.05;;
30249;SDS011;17064;47.974;13.826;2023-04-03T03:57:57;4.47;;;3.33;;
30249;SDS011;17064;47.974;13.826;2023-04-03T04:02:57;6.65;;;4.50;;
30249;SDS011;17064;47.974;13.826;2023-04-03T04:07:58;5.90;;;4.20;;
30249;SDS011;17064;47.974;13.826;2023-04-03T04:12:59;5.60;;;3.65;;
30249;SDS011;17064;47.974;13.826;2023-04-03T04:18:00;5.93;;;3.97;;
30249;SDS011;17064;47.974;13.826;2023-04-03T04:23:01;5.05;;;3.03;;
30249;SDS011;17064;47.974;13.826;2023-04-03T04:28:02;5.68;;;3.72;;
30249;SDS011;17064;47.974;13.826;2023-04-03T04:33:03;9.95;;;3.80;;
30249;SDS011;17064;47.974;13.826;2023-04-03T04:38:03;5.05;;;4.07;;
30249;SDS011;17064;47.974;13.826;2023-04-03T04:43:04;7.13;;;4.30;;
30249;SDS011;17064;47.974;13.826;2023-04-03T04:48:05;5.68;;;3.90;;
30249;SDS011;17064;47.974;13.826;2023-04-03T04:53:06;5.40;;;4.60;;
30249;SDS011;17064;47.974;13.826;2023-04-03T04:58:06;6.93;;;4.10;;
30249;SDS011;17064;47.974;13.826;2023-04-03T05:03:07;5.78;;;3.85;;
30249;SDS011;17064;47.974;13.826;2023-04-03T05:08:08;7.05;;;4.00;;
30249;SDS011;17064;47.974;13.826;2023-04-03T05:13:08;5.53;;;4.20;;
30249;SDS011;17064;47.974;13.826;2023-04-03T05:18:09;10.15;;;5.38;;
30249;SDS011;17064;47.974;13.826;2023-04-03T05:23:10;7.85;;;5.15;;
30249;SDS011;17064;47.974;13.826;2023-04-03T05:28:11;10.57;;;5.57;;
30249;SDS011;17064;47.974;13.826;2023-04-03T05:33:12;8.23;;;5.50;;
30249;SDS011;17064;47.974;13.826;2023-04-03T05:38:15;11.60;;;6.40;;
30249;SDS011;17064;47.974;13.826;2023-04-03T05:43:16;10.20;;;6.82;;
30249;SDS011;17064;47.974;13.826;2023-04-03T05:48:17;9.95;;;6.95;;
30249;SDS011;17064;47.974;13.826;2023-04-03T05:53:21;6.47;;;5.28;;
30249;SDS011;17064;47.974;13.826;2023-04-03T05:58:27;9.05;;;6.07;;
30249;SDS011;17064;47.974;13.826;2023-04-03T06:03:27;8.05;;;5.68;;
30249;SDS011;17064;47.974;13.826;2023-04-03T06:08:28;10.52;;;5.40;;
30249;SDS011;17064;47.974;13.826;2023-04-03T06:13:29;8.50;;;5.10;;
30249;SDS011;17064;47.974;13.826;2023-04-03T06:18:29;10.05;;;4.80;;
30249;SDS011;17064;47.974;13.826;2023-04-03T06:23:30;6.60;;;4.55;;
30249;SDS011;17064;47.974;13.826;2023-04-03T06:28:32;7.10;;;4.45;;
30249;SDS011;17064;47.974;13.826;2023-04-03T06:33:33;7.22;;;4.35;;
30249;SDS011;17064;47.974;13.826;2023-04-03T06:38:34;6.82;;;4.75;;
30249;SDS011;17064;47.974;13.826;2023-04-03T06:43:35;15.00;;;7.95;;
30249;SDS011;17064;47.974;13.826;2023-04-03T06:48:36;9.70;;;5.18;;
30249;SDS011;17064;47.974;13.826;2023-04-03T06:53:36;6.10;;;3.67;;
30249;SDS011;17064;47.974;13.826;2023-04-03T06:58:37;6.85;;;4.43;;
30249;SDS011;17064;47.974;13.826;2023-04-03T07:03:38;6.43;;;4.60;;
30249;SDS011;17064;47.974;13.826;2023-04-03T07:08:40;25.10;;;13.10;;
30249;SDS011;17064;47.974;13.826;2023-04-03T07:13:42;9.10;;;4.82;;
30249;SDS011;17064;47.974;13.826;2023-04-03T07:18:43;10.00;;;6.18;;
30249;SDS011;17064;47.974;13.826;2023-04-03T07:23:44;10.23;;;6.43;;
30249;SDS011;17064;47.974;13.826;2023-04-03T07:28:44;11.80;;;5.80;;
30249;SDS011;17064;47.974;13.826;2023-04-03T07:33:47;9.38;;;4.60;;
30249;SDS011;17064;47.974;13.826;2023-04-03T07:38:49;7.80;;;4.55;;
30249;SDS011;17064;47.974;13.826;2023-04-03T07:43:50;8.82;;;5.15;;
30249;SDS011;17064;47.974;13.826;2023-04-03T07:48:51;6.50;;;3.53;;
30249;SDS011;17064;47.974;13.826;2023-04-03T07:53:52;5.45;;;3.72;;
30249;SDS011;17064;47.974;13.826;2023-04-03T07:58:53;6.88;;;2.97;;
30249;SDS011;17064;47.974;13.826;2023-04-03T08:03:53;8.63;;;5.40;;
30249;SDS011;17064;47.974;13.826;2023-04-03T08:08:54;9.45;;;6.07;;
30249;SDS011;17064;47.974;13.826;2023-04-03T08:13:55;5.45;;;3.78;;
30249;SDS011;17064;47.974;13.826;2023-04-03T08:18:56;6.75;;;3.25;;
30249;SDS011;17064;47.974;13.826;2023-04-03T08:23:57;7.20;;;3.08;;
30249;SDS011;17064;47.974;13.826;2023-04-03T08:28:58;5.75;;;2.97;;
30249;SDS011;17064;47.974;13.826;2023-04-03T08:33:58;4.80;;;3.03;;
30249;SDS011;17064;47.974;13.826;2023-04-03T08:38:59;2.25;;;1.65;;
30249;SDS011;17064;47.974;13.826;2023-04-03T08:49:26;1.38;;;1.27;;
30249;SDS011;17064;47.974;13.826;2023-04-03T08:54:30;3.35;;;1.73;;
30249;SDS011;17064;47.974;13.826;2023-04-03T08:59:35;2.22;;;1.77;;
30249;SDS011;17064;47.974;13.826;2023-04-03T09:04:38;5.68;;;2.40;;
30249;SDS011;17064;47.974;13.826;2023-04-03T09:09:40;5.78;;;2.10;;
30249;SDS011;17064;47.974;13.826;2023-04-03T09:19:54;3.70;;;2.03;;
30249;SDS011;17064;47.974;13.826;2023-04-03T09:25:11;3.67;;;2.28;;
30249;SDS011;17064;47.974;13.826;2023-04-03T09:30:33;7.72;;;5.05;;
30249;SDS011;17064;47.974;13.826;2023-04-03T09:35:36;5.88;;;2.33;;
30249;SDS011;17064;47.974;13.826;2023-04-03T09:40:38;4.18;;;2.67;;
30249;SDS011;17064;47.974;13.826;2023-04-03T09:45:40;7.18;;;2.97;;
30249;SDS011;17064;47.974;13.826;2023-04-03T09:55:59;3.92;;;2.75;;
30249;SDS011;17064;47.974;13.826;2023-04-03T10:01:03;3.80;;;2.70;;
30249;SDS011;17064;47.974;13.826;2023-04-03T10:06:04;3.35;;;2.40;;
30249;SDS011;17064;47.974;13.826;2023-04-03T10:11:23;4.20;;;2.72;;
30249;SDS011;17064;47.974;13.826;2023-04-03T10:16:30;5.80;;;2.80;;
30249;SDS011;17064;47.974;13.826;2023-04-03T10:21:44;3.53;;;2.15;;
30249;SDS011;17064;47.974;13.826;2023-04-03T10:37:26;5.55;;;2.20;;
30249;SDS011;17064;47.974;13.826;2023-04-03T10:42:34;2.97;;;1.92;;
30249;SDS011;17064;47.974;13.826;2023-04-03T10:53:52;7.45;;;3.53;;
30249;SDS011;17064;47.974;13.826;2023-04-03T11:04:37;6.80;;;3.53;;
30249;SDS011;17064;47.974;13.826;2023-04-03T11:09:41;4.60;;;2.78;;
30249;SDS011;17064;47.974;13.826;2023-04-03T11:14:45;4.90;;;2.88;;
30249;SDS011;17064;47.974;13.826;2023-04-03T11:19:52;5.32;;;2.80;;
30249;SDS011;17064;47.974;13.826;2023-04-03T11:30:22;9.57;;;3.50;;
30249;SDS011;17064;47.974;13.826;2023-04-03T11:35:23;5.72;;;3.10;;
30249;SDS011;17064;47.974;13.826;2023-04-03T11:40:28;6.20;;;2.83;;
30249;SDS011;17064;47.974;13.826;2023-04-03T11:50:40;5.95;;;3.28;;
30249;SDS011;17064;47.974;13.826;2023-04-03T12:00:52;4.78;;;3.08;;
30249;SDS011;17064;47.974;13.826;2023-04-03T12:37:17;5.35;;;3.33;;
30249;SDS011;17064;47.974;13.826;2023-04-03T12:48:04;3.63;;;2.58;;
30249;SDS011;17064;47.974;13.826;2023-04-03T12:53:13;7.30;;;2.38;;
30249;SDS011;17064;47.974;13.826;2023-04-03T12:58:25;4.15;;;2.20;;
30249;SDS011;17064;47.974;13.826;2023-04-03T13:03:27;4.10;;;2.40;;
30249;SDS011;17064;47.974;13.826;2023-04-03T13:08:28;3.60;;;2.13;;
30249;SDS011;17064;47.974;13.826;2023-04-03T13:13:30;6.28;;;2.30;;
30249;SDS011;17064;47.974;13.826;2023-04-03T13:18:32;3.97;;;2.30;;
30249;SDS011;17064;47.974;13.826;2023-04-03T13:28:38;5.07;;;1.55;;
30249;SDS011;17064;47.974;13.826;2023-04-03T13:49:27;6.05;;;2.55;;
30249;SDS011;17064;47.974;13.826;2023-04-03T13:54:37;7.70;;;3.15;;
30249;SDS011;17064;47.974;13.826;2023-04-03T13:59:38;8.27;;;3.05;;
30249;SDS011;17064;47.974;13.826;2023-04-03T14:09:40;5.50;;;3.25;;
30249;SDS011;17064;47.974;13.826;2023-04-03T14:14:41;4.95;;;2.80;;
30249;SDS011;17064;47.974;13.826;2023-04-03T14:19:44;4.32;;;2.88;;
30249;SDS011;17064;47.974;13.826;2023-04-03T14:24:45;4.25;;;3.17;;
30249;SDS011;17064;47.974;13.826;2023-04-03T14:29:47;18.30;;;3.38;;
30249;SDS011;17064;47.974;13.826;2023-04-03T14:34:50;6.88;;;3.33;;
30249;SDS011;17064;47.974;13.826;2023-04-03T14:39:51;5.43;;;2.72;;
30249;SDS011;17064;47.974;13.826;2023-04-03T14:44:53;5.80;;;3.22;;
30249;SDS011;17064;47.974;13.826;2023-04-03T14:49:54;3.00;;;2.47;;
30249;SDS011;17064;47.974;13.826;2023-04-03T14:54:55;3.70;;;2.63;;
30249;SDS011;17064;47.974;13.826;2023-04-03T14:59:57;3.22;;;2.50;;
30249;SDS011;17064;47.974;13.826;2023-04-03T15:04:59;6.68;;;3.00;;
30249;SDS011;17064;47.974;13.826;2023-04-03T15:10:18;5.28;;;3.15;;
30249;SDS011;17064;47.974;13.826;2023-04-03T15:15:23;4.10;;;2.97;;
30249;SDS011;17064;47.974;13.826;2023-04-03T15:20:28;5.07;;;2.97;;
30249;SDS011;17064;47.974;13.826;2023-04-03T15:25:33;8.90;;;3.45;;
30249;SDS011;17064;47.974;13.826;2023-04-03T15:30:34;6.47;;;2.80;;
30249;SDS011;17064;47.974;13.826;2023-04-03T15:35:38;6.20;;;2.75;;
30249;SDS011;17064;47.974;13.826;2023-04-03T15:40:39;9.75;;;3.53;;
30249;SDS011;17064;47.974;13.826;2023-04-03T15:45:40;6.47;;;2.95;;
30249;SDS011;17064;47.974;13.826;2023-04-03T15:50:42;8.05;;;3.88;;
30249;SDS011;17064;47.974;13.826;2023-04-03T15:55:43;3.97;;;3.50;;
30249;SDS011;17064;47.974;13.826;2023-04-03T16:00:44;6.75;;;3.50;;
30249;SDS011;17064;47.974;13.826;2023-04-03T16:05:45;4.70;;;3.35;;
30249;SDS011;17064;47.974;13.826;2023-04-03T16:10:46;9.80;;;4.43;;
30249;SDS011;17064;47.974;13.826;2023-04-03T16:15:47;3.83;;;2.75;;
30249;SDS011;17064;47.974;13.826;2023-04-03T16:20:48;8.90;;;3.45;;
30249;SDS011;17064;47.974;13.826;2023-04-03T16:25:49;8.15;;;3.28;;
30249;SDS011;17064;47.974;13.826;2023-04-03T16:30:50;4.50;;;2.70;;
30249;SDS011;17064;47.974;13.826;2023-04-03T16:35:51;7.70;;;3.30;;
30249;SDS011;17064;47.974;13.826;2023-04-03T16:40:52;7.63;;;4.95;;
30249;SDS011;17064;47.974;13.826;2023-04-03T16:45:56;7.85;;;4.40;;
30249;SDS011;17064;47.974;13.826;2023-04-03T16:50:58;4.78;;;3.40;;
30249;SDS011;17064;47.974;13.826;2023-04-03T16:55:59;5.22;;;3.50;;
30249;SDS011;17064;47.974;13.826;2023-04-03T17:01:08;5.05;;;3.38;;
30249;SDS011;17064;47.974;13.826;2023-04-03T17:06:10;7.93;;;3.25;;
30249;SDS011;17064;47.974;13.826;2023-04-03T17:11:16;5.07;;;3.08;;
30249;SDS011;17064;47.974;13.826;2023-04-03T17:16:17;8.38;;;3.70;;
30249;SDS011;17064;47.974;13.826;2023-04-03T17:21:18;6.20;;;2.80;;
30249;SDS011;17064;47.974;13.826;2023-04-03T17:26:20;4.38;;;2.65;;
30249;SDS011;17064;47.974;13.826;2023-04-03T17:31:21;5.30;;;2.90;;
30249;SDS011;17064;47.974;13.826;2023-04-03T17:36:22;5.15;;;2.70;;
30249;SDS011;17064;47.974;13.826;2023-04-03T17:41:23;5.32;;;3.25;;
30249;SDS011;17064;47.974;13.826;2023-04-03T17:46:25;3.42;;;2.45;;
30249;SDS011;17064;47.974;13.826;2023-04-03T17:51:26;4.82;;;2.50;;
30249;SDS011;17064;47.974;13.826;2023-04-03T17:56:27;7.00;;;2.78;;
30249;SDS011;17064;47.974;13.826;2023-04-03T18:01:32;3.63;;;2.42;;
30249;SDS011;17064;47.974;13.826;2023-04-03T18:11:38;7.03;;;3.22;;
30249;SDS011;17064;47.974;13.826;2023-04-03T18:16:40;6.38;;;2.88;;
30249;SDS011;17064;47.974;13.826;2023-04-03T18:21:41;9.07;;;3.65;;
30249;SDS011;17064;47.974;13.826;2023-04-03T18:26:45;6.47;;;2.70;;
30249;SDS011;17064;47.974;13.826;2023-04-03T18:31:50;5.20;;;2.90;;
30249;SDS011;17064;47.974;13.826;2023-04-03T18:41:55;5.55;;;3.30;;
30249;SDS011;17064;47.974;13.826;2023-04-03T18:46:57;4.82;;;3.28;;
30249;SDS011;17064;47.974;13.826;2023-04-03T18:51:59;3.85;;;2.60;;
30249;SDS011;17064;47.974;13.826;2023-04-03T18:57:01;5.50;;;2.83;;
30249;SDS011;17064;47.974;13.826;2023-04-03T19:02:03;4.50;;;2.50;;
30249;SDS011;17064;47.974;13.826;2023-04-03T19:07:06;6.95;;;3.25;;
30249;SDS011;17064;47.974;13.826;2023-04-03T19:12:08;9.25;;;2.63;;
30249;SDS011;17064;47.974;13.826;2023-04-03T19:17:09;4.18;;;2.63;;
30249;SDS011;17064;47.974;13.826;2023-04-03T19:22:10;6.75;;;3.40;;
30249;SDS011;17064;47.974;13.826;2023-04-03T19:27:11;4.75;;;3.00;;
30249;SDS011;17064;47.974;13.826;2023-04-03T19:32:13;4.97;;;2.70;;
30249;SDS011;17064;47.974;13.826;2023-04-03T19:37:15;5.60;;;2.17;;
30249;SDS011;17064;47.974;13.826;2023-04-03T19:42:17;5.40;;;2.60;;
30249;SDS011;17064;47.974;13.826;2023-04-03T19:47:19;4.78;;;2.58;;
30249;SDS011;17064;47.974;13.826;2023-04-03T19:52:21;5.20;;;2.50;;
30249;SDS011;17064;47.974;13.826;2023-04-03T19:57:23;7.43;;;2.67;;
30249;SDS011;17064;47.974;13.826;2023-04-03T20:02:26;5.35;;;2.47;;
30249;SDS011;17064;47.974;13.826;2023-04-03T20:07:27;6.63;;;2.72;;
30249;SDS011;17064;47.974;13.826;2023-04-03T20:12:28;5.75;;;2.90;;
30249;SDS011;17064;47.974;13.826;2023-04-03T20:17:30;6.65;;;2.90;;
30249;SDS011;17064;47.974;13.826;2023-04-03T20:22:32;4.25;;;2.65;;
30249;SDS011;17064;47.974;13.826;2023-04-03T20:27:34;6.63;;;2.88;;
30249;SDS011;17064;47.974;13.826;2023-04-03T20:32:35;5.90;;;3.20;;
30249;SDS011;17064;47.974;13.826;2023-04-03T20:37:36;6.53;;;3.00;;
30249;SDS011;17064;47.974;13.826;2023-04-03T20:42:41;5.38;;;2.70;;
30249;SDS011;17064;47.974;13.826;2023-04-03T20:47:42;6.65;;;3.22;;
30249;SDS011;17064;47.974;13.826;2023-04-03T20:52:43;5.47;;;2.80;;
30249;SDS011;17064;47.974;13.826;2023-04-03T20:57:46;5.65;;;2.92;;
30249;SDS011;17064;47.974;13.826;2023-04-03T21:02:47;7.70;;;3.45;;
30249;SDS011;17064;47.974;13.826;2023-04-03T21:19:23;7.80;;;3.63;;
30249;SDS011;17064;47.974;13.826;2023-04-03T21:24:24;6.55;;;2.83;;
30249;SDS011;17064;47.974;13.826;2023-04-03T21:29:25;3.58;;;2.20;;
30249;SDS011;17064;47.974;13.826;2023-04-03T21:34:29;4.13;;;2.55;;
30249;SDS011;17064;47.974;13.826;2023-04-03T21:39:30;4.38;;;2.10;;
30249;SDS011;17064;47.974;13.826;2023-04-03T21:44:32;5.00;;;2.92;;
30249;SDS011;17064;47.974;13.826;2023-04-03T21:49:32;3.95;;;2.00;;
30249;SDS011;17064;47.974;13.826;2023-04-03T21:54:33;5.28;;;2.08;;
30249;SDS011;17064;47.974;13.826;2023-04-03T21:59:34;4.43;;;2.42;;
30249;SDS011;17064;47.974;13.826;2023-04-03T22:04:35;4.55;;;2.05;;
30249;SDS011;17064;47.974;13.826;2023-04-03T22:09:36;6.90;;;2.47;;
30249;SDS011;17064;47.974;13.826;2023-04-03T22:14:37;5.18;;;2.28;;
30249;SDS011;17064;47.974;13.826;2023-04-03T22:19:38;5.35;;;2.28;;
30249;SDS011;17064;47.974;13.826;2023-04-03T22:24:39;3.67;;;2.30;;
30249;SDS011;17064;47.974;13.826;2023-04-03T22:29:40;5.53;;;2.47;;
30249;SDS011;17064;47.974;13.826;2023-04-03T22:34:41;6.13;;;2.80;;
30249;SDS011;17064;47.974;13.826;2023-04-03T22:39:42;9.15;;;2.90;;
30249;SDS011;17064;47.974;13.826;2023-04-03T22:44:42;5.95;;;2.70;;
30249;SDS011;17064;47.974;13.826;2023-04-03T22:49:43;6.00;;;2.67;;
30249;SDS011;17064;47.974;13.826;2023-04-03T22:54:44;5.43;;;2.72;;
30249;SDS011;17064;47.974;13.826;2023-04-03T22:59:44;7.50;;;2.80;;
